Terminal Aerodrome Forecast
Issued by NWS

Home | Current Version | Previous Version | Text Only | Print | Product List | Glossary On
Versions: 1 2 3 4 5 6 7 8 9 10 11 12 13 14 15 16
000
FTUS43 KDTX 282320
TAFMBS
TAF
KMBS 282320Z 2900/2924 05008KT P6SM SCT070 BKN150
     FM290200 02005KT P6SM FEW070
     FM291400 05010KT P6SM SCT120 BKN200
     FM291800 08010KT P6SM SCT050 BKN150=

USA.gov is the U.S. government's official web portal to all federal, state and local government web resources and services.